Time;durP1;ratioP1;P1;durP2;ratioP2;P2;SDS_P1;SDS_P2;PMS_P1;PMS_P2;Temp;Humidity;BMP_temperature;BMP_pressure;BME280_temperature;BME280_humidity;BME280_pressure;Samples;Min_cycle;Max_cycle;Signal;HPM_P1;HPM_P2
2021/05/23 00:02:23;;;;;;;3.90;2.00;;;;;;;10.69;60.84;100558.34;6076024;29;20241;-53
2021/05/23 00:05:46;;;;;;;2.47;1.70;;;;;;;10.71;60.39;100558.31;6077893;29;20248;-46
2021/05/23 00:09:06;;;;;;;4.47;2.47;;;;;;;11.00;60.39;100563.13;6089428;29;20232;-52
2021/05/23 00:12:27;;;;;;;3.50;2.00;;;;;;;10.87;60.75;100565.03;6085276;29;20241;-48
2021/05/23 00:15:54;;;;;;;7.67;2.97;;;;;;;10.64;60.88;100568.84;6087920;29;20603;-49
2021/05/23 00:19:14;;;;;;;5.47;1.53;;;;;;;10.51;61.60;100571.63;6067389;29;20499;-45
2021/05/23 00:22:35;;;;;;;6.03;2.40;;;;;;;10.80;60.74;100560.81;6074095;29;20240;-50
2021/05/23 00:25:56;;;;;;;4.47;2.10;;;;;;;10.82;60.90;100559.91;6088855;29;20248;-48
2021/05/23 00:29:18;;;;;;;5.63;2.77;;;;;;;10.70;60.35;100570.50;6083931;29;20252;-50
2021/05/23 00:32:38;;;;;;;5.53;2.50;;;;;;;10.58;60.73;100562.81;6096804;29;20247;-47
2021/05/23 00:35:59;;;;;;;4.17;2.43;;;;;;;10.68;60.52;100571.38;6081322;29;20253;-49
2021/05/23 00:39:19;;;;;;;5.37;2.37;;;;;;;10.60;60.46;100567.16;6101956;29;20244;-49
2021/05/23 00:42:40;;;;;;;5.07;1.70;;;;;;;10.39;61.29;100581.31;6080413;29;20232;-45
2021/05/23 00:46:02;;;;;;;2.57;2.13;;;;;;;10.69;60.78;100575.72;6091616;29;20241;-47
2021/05/23 00:49:22;;;;;;;4.70;2.00;;;;;;;10.53;60.84;100575.91;6063477;29;20240;-52
2021/05/23 00:52:43;;;;;;;6.17;2.37;;;;;;;10.60;60.98;100576.69;6065515;29;20715;-49
2021/05/23 00:56:04;;;;;;;8.07;2.40;;;;;;;10.33;62.01;100576.19;6086941;29;20233;-47
2021/05/23 00:59:24;;;;;;;5.43;2.00;;;;;;;10.70;60.78;100575.72;6064776;29;20241;-49
2021/05/23 01:02:48;;;;;;;4.33;2.23;;;;;;;10.72;60.54;100575.66;6076078;29;20335;-54
2021/05/23 01:06:10;;;;;;;2.90;2.30;;;;;;;10.93;59.83;100582.31;6084860;29;20233;-50
2021/05/23 01:09:30;;;;;;;5.03;2.87;;;;;;;10.63;61.17;100587.06;6082056;29;20377;-49
2021/05/23 01:13:33;;;;;;;5.97;2.07;;;;;;;10.57;60.88;100587.16;6087263;29;20314;-48
2021/05/23 01:16:55;;;;;;;6.17;1.90;;;;;;;10.59;61.03;100581.03;6059949;29;20331;-46
2021/05/23 01:20:26;;;;;;;5.33;2.37;;;;;;;10.58;60.50;100581.91;6090228;29;20248;-49
2021/05/23 01:23:51;;;;;;;9.77;2.40;;;;;;;10.44;60.74;100592.50;6086262;29;20240;-50
2021/05/23 01:27:12;;;;;;;8.50;2.40;;;;;;;10.43;60.91;100596.00;6068913;29;20237;-51
2021/05/23 01:30:36;;;;;;;4.83;1.80;;;;;;;10.44;61.18;100595.09;6074589;29;20237;-46
2021/05/23 01:33:59;;;;;;;4.70;2.27;;;;;;;10.64;61.03;100604.41;6086476;29;20244;-49
2021/05/23 01:37:23;;;;;;;7.27;3.20;;;;;;;10.86;59.68;100606.72;6087899;29;20340;-47
2021/05/23 01:40:45;;;;;;;6.90;3.00;;;;;;;10.37;60.73;100601.28;6086099;29;20542;-48
2021/05/23 01:44:08;;;;;;;6.60;2.17;;;;;;;10.54;60.25;100610.63;6108299;29;20232;-52
2021/05/23 01:47:28;;;;;;;4.03;2.30;;;;;;;10.50;60.37;100606.34;6086270;29;20273;-48
2021/05/23 01:50:49;;;;;;;3.90;1.80;;;;;;;10.55;60.19;100609.75;6090063;29;20240;-50
2021/05/23 01:54:09;;;;;;;4.37;1.90;;;;;;;10.56;60.10;100603.66;6076536;29;20233;-49
2021/05/23 01:57:29;;;;;;;5.47;2.00;;;;;;;10.69;59.65;100596.56;6070750;29;20248;-51
2021/05/23 02:00:52;;;;;;;2.73;1.83;;;;;;;10.41;60.37;100596.88;6079520;29;20241;-50
2021/05/23 02:04:12;;;;;;;5.60;2.57;;;;;;;10.79;59.64;100600.75;6091316;29;20427;-49
2021/05/23 02:07:33;;;;;;;3.27;2.00;;;;;;;10.29;60.77;100615.22;6079437;29;20252;-46
2021/05/23 02:10:57;;;;;;;8.63;2.70;;;;;;;10.47;60.11;100621.97;6092039;29;20311;-48
2021/05/23 02:14:17;;;;;;;5.00;1.97;;;;;;;10.32;61.11;100597.84;6069569;29;20624;-49
2021/05/23 02:17:40;;;;;;;5.23;2.20;;;;;;;10.35;60.75;100610.84;6092363;29;20317;-51
2021/05/23 02:21:01;;;;;;;6.17;2.83;;;;;;;10.84;59.72;100606.78;6090278;29;20240;-49
2021/05/23 02:24:42;;;;;;;5.10;2.33;;;;;;;10.48;60.50;100610.69;6093212;29;20640;-49
2021/05/23 02:28:05;;;;;;;6.93;2.50;;;;;;;10.75;59.83;100612.09;6080341;29;20235;-49
2021/05/23 02:31:26;;;;;;;4.93;2.00;;;;;;;10.71;60.11;100605.22;6093022;29;20487;-50
2021/05/23 02:34:47;;;;;;;5.57;2.40;;;;;;;10.70;60.20;100609.56;6093238;29;20629;-53
2021/05/23 02:38:09;;;;;;;4.60;1.93;;;;;;;10.70;59.98;100619.97;6079275;29;20237;-48
2021/05/23 02:41:30;;;;;;;6.80;2.30;;;;;;;10.33;60.97;100632.56;6091653;29;20244;-49
2021/05/23 02:44:50;;;;;;;6.63;2.03;;;;;;;10.53;60.67;100637.56;6094494;29;20240;-47
2021/05/23 02:48:11;;;;;;;4.73;2.43;;;;;;;10.48;60.32;100629.78;6078657;29;20232;-49
2021/05/23 02:51:33;;;;;;;4.33;2.30;;;;;;;10.73;60.16;100624.28;6090195;29;20252;-47
2021/05/23 02:54:53;;;;;;;5.43;2.37;;;;;;;10.36;61.40;100625.56;6089962;29;20288;-50
2021/05/23 02:58:15;;;;;;;5.27;2.47;;;;;;;10.29;61.31;100631.69;6090690;29;20537;-49
2021/05/23 03:01:35;;;;;;;4.83;1.77;;;;;;;10.41;61.31;100634.22;6090440;29;20654;-54
2021/05/23 03:04:56;;;;;;;11.20;3.17;;;;;;;10.61;61.02;100646.97;6090651;29;20232;-47
2021/05/23 03:08:17;;;;;;;4.47;2.60;;;;;;;10.91;59.87;100644.00;6091479;29;20252;-51
2021/05/23 03:11:38;;;;;;;7.10;2.23;;;;;;;10.63;60.73;100649.56;6089506;29;21072;-51
2021/05/23 03:14:59;;;;;;;7.77;2.53;;;;;;;10.41;61.49;100647.22;6090611;29;20579;-49
2021/05/23 03:18:19;;;;;;;7.23;3.23;;;;;;;9.84;63.55;100667.69;6088452;29;20236;-54
2021/05/23 03:21:41;;;;;;;10.77;3.40;;;;;;;9.88;63.33;100669.38;6077145;29;20264;-49
2021/05/23 03:25:04;;;;;;;6.60;2.80;;;;;;;10.41;61.95;100668.06;6091756;29;20319;-49
2021/05/23 03:28:24;;;;;;;6.30;3.43;;;;;;;10.62;61.46;100676.47;6089893;29;20240;-50
2021/05/23 03:31:45;;;;;;;7.60;2.90;;;;;;;10.24;61.96;100683.81;6090449;29;20236;-51
2021/05/23 03:35:08;;;;;;;5.63;2.17;;;;;;;10.56;61.31;100690.44;6091970;29;20233;-50
2021/05/23 03:38:29;;;;;;;4.50;1.90;;;;;;;10.34;61.42;100692.41;6089229;29;20256;-51
2021/05/23 03:41:50;;;;;;;7.47;3.00;;;;;;;10.08;62.91;100691.75;6092182;29;20327;-52
2021/05/23 03:45:12;;;;;;;5.87;2.43;;;;;;;10.13;62.56;100703.00;6102564;29;20235;-52
2021/05/23 03:48:33;;;;;;;4.00;2.50;;;;;;;9.83;62.96;100702.38;6094708;29;20283;-53
2021/05/23 03:51:53;;;;;;;11.07;2.77;;;;;;;10.39;61.93;100703.66;6085691;29;20779;-50
2021/05/23 03:55:14;;;;;;;4.27;1.80;;;;;;;9.53;64.27;100719.91;6086866;29;21024;-51
2021/05/23 03:58:35;;;;;;;6.63;2.80;;;;;;;10.23;61.91;100713.28;6089922;29;20602;-49
2021/05/23 04:01:55;;;;;;;7.47;2.77;;;;;;;9.84;63.32;100714.50;6087684;29;20297;-51
2021/05/23 04:05:17;;;;;;;6.37;3.10;;;;;;;9.75;63.47;100715.44;6089506;29;20326;-50
2021/05/23 04:08:37;;;;;;;5.67;2.60;;;;;;;10.08;62.49;100717.78;6091406;29;20240;-52
2021/05/23 04:11:58;;;;;;;7.77;3.40;;;;;;;10.37;61.96;100728.84;6092422;29;20615;-49
2021/05/23 04:15:20;;;;;;;3.57;2.10;;;;;;;9.92;63.30;100732.66;6087559;29;20232;-50
2021/05/23 04:18:41;;;;;;;3.90;2.27;;;;;;;9.75;63.67;100735.38;6091775;29;20259;-50
2021/05/23 04:22:02;;;;;;;3.40;2.70;;;;;;;10.30;62.47;100745.38;6068395;29;20698;-50
2021/05/23 04:25:25;;;;;;;8.67;2.10;;;;;;;9.97;63.03;100746.50;6082853;29;20240;-51
2021/05/23 04:28:45;;;;;;;5.90;3.20;;;;;;;10.05;62.69;100750.75;6081980;29;20319;-52
2021/05/23 04:32:08;;;;;;;7.23;2.70;;;;;;;10.14;62.37;100749.84;6088047;29;20504;-47
2021/05/23 04:35:28;;;;;;;6.83;2.27;;;;;;;10.14;62.52;100754.16;6081535;29;20448;-52
2021/05/23 04:38:49;;;;;;;7.43;4.07;;;;;;;10.60;60.95;100753.75;6080194;29;20228;-47
2021/05/23 04:42:10;;;;;;;6.53;2.50;;;;;;;10.86;59.67;100760.44;6086317;29;20629;-51
2021/05/23 04:45:31;;;;;;;4.13;1.97;;;;;;;10.75;59.64;100758.81;6088270;29;20315;-51
2021/05/23 04:48:53;;;;;;;7.03;2.33;;;;;;;10.60;60.22;100766.78;6087396;29;20325;-50
2021/05/23 04:52:14;;;;;;;7.37;3.27;;;;;;;10.35;60.79;100769.66;6083585;29;20240;-49
2021/05/23 04:55:35;;;;;;;9.13;4.30;;;;;;;10.57;60.44;100780.72;6072640;29;20232;-50
2021/05/23 04:58:55;;;;;;;8.13;2.37;;;;;;;10.62;60.36;100770.25;6086829;29;20315;-51
2021/05/23 05:02:15;;;;;;;7.73;3.10;;;;;;;10.16;61.66;100783.66;6091117;29;20243;-50
2021/05/23 05:05:37;;;;;;;9.37;3.70;;;;;;;10.22;61.30;100796.63;6091762;29;20240;-50
2021/05/23 05:08:57;;;;;;;9.83;2.67;;;;;;;10.14;61.71;100793.19;6080970;29;20241;-48
2021/05/23 05:12:19;;;;;;;5.77;2.53;;;;;;;10.41;60.85;100795.63;6081832;29;20240;-52
2021/05/23 05:15:40;;;;;;;5.13;2.53;;;;;;;10.61;60.45;100798.03;6077856;29;20240;-49
2021/05/23 05:19:00;;;;;;;7.00;2.47;;;;;;;10.40;60.93;100809.50;6088830;29;20237;-49
2021/05/23 05:22:22;;;;;;;3.90;1.97;;;;;;;10.23;61.12;100814.78;6082826;29;20236;-47
2021/05/23 05:25:42;;;;;;;9.00;2.40;;;;;;;10.21;60.82;100813.09;6091486;29;20229;-53
2021/05/23 05:29:03;;;;;;;9.37;3.10;;;;;;;10.23;61.60;100820.00;6092827;29;20256;-51
2021/05/23 05:32:24;;;;;;;6.37;3.00;;;;;;;9.73;62.38;100825.53;6096049;29;20615;-51
2021/05/23 05:35:44;;;;;;;8.47;2.70;;;;;;;10.28;60.78;100825.19;6093522;29;20321;-50
2021/05/23 05:39:06;;;;;;;14.07;4.37;;;;;;;10.37;60.62;100824.28;6090319;29;20240;-51
2021/05/23 05:42:26;;;;;;;10.27;3.57;;;;;;;10.74;59.49;100818.75;6103699;29;20243;-49
2021/05/23 05:45:47;;;;;;;7.73;2.50;;;;;;;10.66;60.33;100826.63;6105393;29;20240;-47
2021/05/23 05:49:08;;;;;;;6.77;3.03;;;;;;;11.33;58.31;100834.63;6085680;29;20252;-50
2021/05/23 05:52:28;;;;;;;8.70;2.10;;;;;;;10.81;59.22;100844.72;6098104;29;20229;-53
2021/05/23 05:55:50;;;;;;;10.40;4.50;;;;;;;10.90;59.17;100835.09;6091776;29;20228;-49
2021/05/23 05:59:10;;;;;;;5.70;2.20;;;;;;;11.19;58.10;100837.41;6091770;29;20233;-49
2021/05/23 06:02:30;;;;;;;8.93;3.17;;;;;;;10.83;59.26;100834.28;6092866;29;20646;-51
2021/05/23 06:05:50;;;;;;;10.33;2.50;;;;;;;10.35;60.36;100839.94;6086093;29;20232;-50
2021/05/23 06:09:11;;;;;;;10.17;2.67;;;;;;;10.89;58.28;100836.81;6095966;29;20236;-52
2021/05/23 06:12:32;;;;;;;7.50;2.30;;;;;;;10.67;58.65;100854.41;6096961;29;20228;-50
2021/05/23 06:15:53;;;;;;;13.00;3.53;;;;;;;10.96;58.80;100853.28;6087851;29;20323;-48
2021/05/23 06:19:13;;;;;;;9.80;3.57;;;;;;;11.09;58.54;100852.28;6095389;29;20240;-52
2021/05/23 06:22:34;;;;;;;4.50;2.83;;;;;;;10.94;58.23;100852.44;6087202;29;20236;-52
2021/05/23 06:25:54;;;;;;;9.33;2.60;;;;;;;11.36;57.06;100851.09;6088199;29;20244;-49
2021/05/23 06:29:15;;;;;;;9.80;4.17;;;;;;;10.70;58.79;100863.94;6092884;29;20714;-48
2021/05/23 06:32:36;;;;;;;7.27;1.83;;;;;;;11.16;57.68;100856.50;6084926;29;20233;-48
2021/05/23 06:35:57;;;;;;;9.47;3.37;;;;;;;11.31;57.23;100846.81;6092891;29;20232;-51
2021/05/23 06:39:18;;;;;;;15.27;3.13;;;;;;;11.75;55.26;100853.22;6091779;29;20572;-47
2021/05/23 06:42:38;;;;;;;10.03;3.83;;;;;;;12.27;53.70;100857.75;6088389;29;20256;-50
2021/05/23 06:45:59;;;;;;;8.80;3.50;;;;;;;11.90;54.65;100853.03;6101195;29;20309;-49
2021/05/23 06:49:19;;;;;;;8.23;2.60;;;;;;;11.90;54.34;100858.25;6095525;29;20255;-51
2021/05/23 06:52:40;;;;;;;7.67;2.30;;;;;;;11.21;55.61;100867.78;6091130;29;20248;-48
2021/05/23 06:56:00;;;;;;;5.10;2.40;;;;;;;11.95;53.74;100890.38;6082781;29;20241;-46
2021/05/23 06:59:21;;;;;;;5.70;2.10;;;;;;;11.54;54.84;100896.09;6095563;29;20237;-49
2021/05/23 07:02:44;;;;;;;7.70;2.27;;;;;;;11.57;55.10;100901.25;6088764;29;20237;-49
2021/05/23 07:06:05;;;;;;;4.93;1.70;;;;;;;11.68;54.47;100898.53;6074191;29;20324;-49
2021/05/23 07:09:26;;;;;;;7.80;2.83;;;;;;;12.13;53.54;100896.22;6087861;29;20236;-50
2021/05/23 07:12:46;;;;;;;5.67;2.70;;;;;;;12.16;52.65;100906.63;6088046;29;20225;-47
2021/05/23 07:16:06;;;;;;;10.83;2.60;;;;;;;11.86;54.71;100913.94;6093883;29;20236;-48
2021/05/23 07:19:28;;;;;;;8.93;2.53;;;;;;;12.26;53.39;100913.44;6096889;29;20233;-49
2021/05/23 07:22:48;;;;;;;7.70;2.93;;;;;;;11.79;55.07;100920.16;6091826;29;20399;-51
2021/05/23 07:26:08;;;;;;;13.00;3.00;;;;;;;11.79;54.64;100933.19;6084754;29;20229;-51
2021/05/23 07:29:28;;;;;;;10.27;2.40;;;;;;;12.72;52.03;100928.41;6094460;29;20237;-49
2021/05/23 07:32:49;;;;;;;4.97;2.93;;;;;;;11.20;55.43;100935.56;6071521;29;20591;-50
2021/05/23 07:36:12;;;;;;;6.53;2.47;;;;;;;12.45;52.61;100923.63;6077883;29;20324;-50
2021/05/23 07:39:32;;;;;;;7.87;2.27;;;;;;;12.50;52.70;100927.03;6074302;29;20225;-48
2021/05/23 07:42:53;;;;;;;7.70;2.20;;;;;;;12.31;53.42;100926.41;6098221;29;20675;-52
2021/05/23 07:46:14;;;;;;;4.90;2.00;;;;;;;11.74;53.79;100930.63;6095731;29;20252;-49
2021/05/23 07:49:40;;;;;;;3.97;2.57;;;;;;;12.40;51.70;100936.75;6095042;29;20463;-53
2021/05/23 07:53:02;;;;;;;8.70;2.57;;;;;;;13.16;49.33;100939.00;6088208;29;20276;-48
2021/05/23 07:56:22;;;;;;;7.03;2.53;;;;;;;13.50;49.31;100939.28;6092096;29;20259;-53
2021/05/23 07:59:42;;;;;;;7.37;2.83;;;;;;;12.96;50.54;100952.41;6086302;29;20240;-46
2021/05/23 08:03:03;;;;;;;4.20;2.83;;;;;;;13.49;49.75;100953.25;6090506;29;20256;-51
2021/05/23 08:06:23;;;;;;;6.40;2.30;;;;;;;13.02;51.10;100968.00;6092909;29;20623;-48
2021/05/23 08:09:45;;;;;;;8.63;2.70;;;;;;;13.43;48.47;100968.19;6082093;29;20618;-49
2021/05/23 08:13:05;;;;;;;4.10;1.93;;;;;;;12.48;51.20;100973.19;6102105;29;20630;-54
2021/05/23 08:16:26;;;;;;;7.80;2.00;;;;;;;12.70;51.09;100972.00;6092608;29;20232;-50
2021/05/23 08:19:46;;;;;;;5.07;1.77;;;;;;;12.09;51.00;100980.69;6086788;29;20308;-50
2021/05/23 08:23:07;;;;;;;3.23;1.97;;;;;;;12.86;49.33;100977.00;6077521;29;20240;-53
2021/05/23 08:26:28;;;;;;;5.50;1.60;;;;;;;13.62;47.77;100980.03;6094483;29;20228;-51
2021/05/23 08:29:48;;;;;;;3.07;1.70;;;;;;;14.04;47.33;100987.94;6083664;29;20245;-50
2021/05/23 08:33:10;;;;;;;6.90;2.30;;;;;;;13.66;47.48;100989.56;6094453;29;20232;-54
2021/05/23 08:36:31;;;;;;;5.40;2.00;;;;;;;12.04;51.70;101006.88;6077768;29;20244;-51
2021/05/23 08:39:51;;;;;;;5.27;1.70;;;;;;;12.54;50.25;100999.22;6072820;29;20293;-49
2021/05/23 08:43:14;;;;;;;5.97;2.07;;;;;;;13.38;48.34;101002.28;6100039;29;20837;-52
2021/05/23 08:46:35;;;;;;;4.63;1.93;;;;;;;13.51;48.16;101002.91;6077018;29;20240;-51
2021/05/23 08:49:56;;;;;;;5.13;2.47;;;;;;;13.64;48.21;101011.41;6070554;29;20236;-50
2021/05/23 08:53:16;;;;;;;4.67;1.57;;;;;;;13.43;48.32;101016.13;6085968;29;20252;-49
2021/05/23 08:56:37;;;;;;;3.17;1.80;;;;;;;12.36;50.47;101019.50;6082362;29;20248;-50
2021/05/23 08:59:59;;;;;;;3.57;2.30;;;;;;;13.44;48.86;101019.63;6093853;29;20229;-47
2021/05/23 09:03:19;;;;;;;3.87;1.57;;;;;;;13.48;48.78;101024.78;6104458;29;20240;-52
2021/05/23 09:06:40;;;;;;;3.47;2.13;;;;;;;13.39;48.93;101024.94;6096422;29;20232;-54
2021/05/23 09:10:01;;;;;;;8.10;2.20;;;;;;;14.16;47.74;101031.34;6096714;29;20244;-47
2021/05/23 09:13:32;;;;;;;4.23;1.97;;;;;;;14.46;45.99;101021.97;6095288;29;20232;-48
2021/05/23 09:16:54;;;;;;;5.00;1.93;;;;;;;13.43;47.50;101026.59;6102722;29;20267;-49
2021/05/23 09:20:18;;;;;;;4.07;2.70;;;;;;;12.36;49.79;101035.16;6083395;29;20232;-50
2021/05/23 09:23:46;;;;;;;6.77;1.97;;;;;;;13.32;48.07;101041.66;6099020;29;20618;-52
2021/05/23 09:27:07;;;;;;;3.93;2.07;;;;;;;14.07;46.74;101032.38;6092704;29;20319;-49
2021/05/23 09:30:29;;;;;;;2.87;1.43;;;;;;;14.16;46.56;101041.81;6081726;29;20331;-51
2021/05/23 09:33:53;;;;;;;4.90;1.93;;;;;;;14.12;46.73;101042.78;6094353;29;20248;-51
2021/05/23 09:37:16;;;;;;;4.93;1.70;;;;;;;14.67;45.25;101044.25;6091240;29;20228;-52
2021/05/23 09:40:38;;;;;;;2.03;1.27;;;;;;;14.96;44.62;101050.59;6088136;29;20232;-48
2021/05/23 09:44:10;;;;;;;5.23;1.77;;;;;;;14.96;44.27;101053.19;6108022;29;20589;-51
2021/05/23 09:47:31;;;;;;;4.07;1.90;;;;;;;15.36;43.20;101047.84;6072791;29;20245;-52
2021/05/23 09:50:53;;;;;;;3.70;1.40;;;;;;;14.40;45.41;101058.78;6090362;29;20236;-50
2021/05/23 09:54:14;;;;;;;4.17;1.73;;;;;;;15.02;44.71;101053.06;6094395;29;20232;-50
2021/05/23 09:57:34;;;;;;;3.27;1.47;;;;;;;14.65;44.26;101061.75;6094204;29;20240;-48
2021/05/23 10:00:55;;;;;;;4.77;1.50;;;;;;;14.68;44.05;101064.31;6092146;29;20240;-52
2021/05/23 10:04:21;;;;;;;5.00;1.37;;;;;;;14.68;44.54;101072.19;6097210;29;20277;-48
2021/05/23 10:07:42;;;;;;;6.57;1.37;;;;;;;14.15;44.63;101058.41;6094085;29;20236;-51
2021/05/23 10:11:03;;;;;;;2.67;1.00;;;;;;;14.22;44.87;101070.50;6092702;29;20354;-48
2021/05/23 10:14:24;;;;;;;2.50;1.33;;;;;;;14.05;45.59;101067.34;6095467;29;20232;-52
2021/05/23 10:17:44;;;;;;;2.50;1.20;;;;;;;14.09;45.63;101074.25;6075609;29;20237;-51
2021/05/23 10:21:05;;;;;;;2.67;1.43;;;;;;;13.83;45.92;101087.84;6102383;29;20280;-52
2021/05/23 10:24:30;;;;;;;3.53;1.70;;;;;;;14.47;44.62;101077.88;6091625;29;20236;-49
2021/05/23 10:27:53;;;;;;;5.40;1.10;;;;;;;13.89;45.45;101080.72;6087664;29;20245;-51
2021/05/23 10:31:15;;;;;;;3.03;1.33;;;;;;;14.05;44.92;101083.06;6086910;29;20307;-49
2021/05/23 10:34:36;;;;;;;2.77;1.23;;;;;;;14.83;43.25;101083.22;6103468;29;20232;-48
2021/05/23 10:38:08;;;;;;;5.33;1.47;;;;;;;14.87;42.97;101083.13;6084434;29;20312;-51
2021/05/23 10:41:30;;;;;;;2.97;1.40;;;;;;;14.32;44.00;101097.38;6090313;29;20331;-53
2021/05/23 10:44:52;;;;;;;4.63;1.87;;;;;;;14.86;43.02;101109.38;6101272;29;20232;-50
2021/05/23 10:48:14;;;;;;;3.10;1.20;;;;;;;14.96;42.23;101097.78;6089431;29;20236;-50
2021/05/23 10:51:34;;;;;;;2.83;1.00;;;;;;;15.85;41.04;101098.25;6094583;29;20579;-52
2021/05/23 10:54:56;;;;;;;2.27;1.10;;;;;;;16.24;40.62;101100.69;6093026;29;20241;-49
2021/05/23 10:58:22;;;;;;;4.83;1.50;;;;;;;14.41;43.21;101096.34;6087975;29;20232;-49
2021/05/23 11:01:44;;;;;;;2.20;1.20;;;;;;;14.48;43.38;101103.16;6093516;29;20320;-50
2021/05/23 11:05:10;;;;;;;4.40;1.20;;;;;;;14.02;44.81;101104.94;6073211;29;20230;-52
2021/05/23 11:08:31;;;;;;;4.67;1.20;;;;;;;15.48;42.22;101106.19;6082496;29;20545;-48
2021/05/23 11:11:51;;;;;;;2.37;1.37;;;;;;;15.96;40.59;101105.84;6088021;29;20254;-48
2021/05/23 11:15:13;;;;;;;2.33;1.00;;;;;;;14.62;42.79;101114.25;6123965;29;20227;-51
2021/05/23 11:18:34;;;;;;;2.77;1.37;;;;;;;14.72;42.48;101107.06;6095814;29;20232;-51
2021/05/23 11:21:55;;;;;;;2.17;1.00;;;;;;;16.05;40.39;101110.88;6091438;29;20674;-55
2021/05/23 11:25:21;;;;;;;3.67;1.23;;;;;;;15.74;40.97;101121.28;6087341;29;20535;-48
2021/05/23 11:28:47;;;;;;;4.13;2.37;;;;;;;16.98;38.91;101121.34;6090408;29;20236;-52
2021/05/23 11:32:13;;;;;;;4.43;1.40;;;;;;;14.93;41.36;101119.69;6083932;29;20232;-48
2021/05/23 11:35:35;;;;;;;3.27;1.30;;;;;;;15.99;40.38;101123.28;6085179;29;20241;-53
2021/05/23 11:38:56;;;;;;;2.70;1.10;;;;;;;14.64;42.14;101119.47;6082130;29;20483;-48
2021/05/23 11:42:17;;;;;;;4.53;1.20;;;;;;;15.64;39.56;101125.03;6089098;29;20256;-53
2021/05/23 11:45:38;;;;;;;3.77;1.23;;;;;;;15.46;39.89;101132.47;6091989;29;20232;-50
2021/05/23 11:49:00;;;;;;;3.20;1.20;;;;;;;16.61;37.73;101132.94;6105106;29;20243;-49
2021/05/23 11:52:20;;;;;;;4.27;1.67;;;;;;;15.88;39.51;101124.44;6081015;29;20228;-53
2021/05/23 11:55:50;;;;;;;1.37;1.10;;;;;;;15.92;39.55;101119.97;6086813;29;20429;-49
2021/05/23 11:59:12;;;;;;;2.67;1.17;;;;;;;17.15;37.59;101111.16;6094080;29;20231;-49
2021/05/23 12:02:33;;;;;;;1.50;1.00;;;;;;;18.45;34.88;101112.91;6091603;29;20237;-46
2021/05/23 12:05:54;;;;;;;3.07;1.30;;;;;;;17.93;35.58;101117.41;6071872;29;20229;-50
2021/05/23 12:09:16;;;;;;;2.50;1.93;;;;;;;18.23;35.33;101107.56;6059947;29;20804;-48
2021/05/23 12:12:37;;;;;;;1.17;1.00;;;;;;;17.09;37.02;101121.88;6083463;29;20245;-55
2021/05/23 12:15:57;;;;;;;3.27;1.30;;;;;;;18.51;34.99;101117.94;6082561;29;20421;-52
2021/05/23 12:19:18;;;;;;;2.20;1.17;;;;;;;17.86;35.31;101119.41;6090172;29;20519;-50
2021/05/23 12:22:42;;;;;;;2.03;1.10;;;;;;;16.49;38.74;101126.28;6088874;29;20232;-53
2021/05/23 12:26:08;;;;;;;4.33;1.83;;;;;;;16.32;38.79;101132.91;6087095;29;20287;-50
2021/05/23 12:29:28;;;;;;;1.87;1.20;;;;;;;15.55;39.49;101121.75;6103332;29;20526;-50
2021/05/23 12:32:52;;;;;;;4.17;1.37;;;;;;;16.06;38.83;101123.09;6092044;29;20348;-51
2021/05/23 12:36:14;;;;;;;1.10;1.00;;;;;;;16.14;38.48;101128.13;6080333;29;20277;-53
2021/05/23 12:39:35;;;;;;;1.40;1.17;;;;;;;16.68;38.17;101126.63;6088707;29;20610;-50
2021/05/23 12:43:08;;;;;;;5.77;1.30;;;;;;;16.62;38.00;101122.41;6081495;29;20241;-49
2021/05/23 12:46:29;;;;;;;2.47;1.00;;;;;;;17.64;36.39;101119.22;6076267;29;20638;-49
2021/05/23 12:49:49;;;;;;;1.77;1.10;;;;;;;15.34;40.00;101122.28;6085896;29;20600;-49
2021/05/23 12:53:09;;;;;;;3.37;1.73;;;;;;;16.46;38.29;101123.72;6089804;29;20598;-55
2021/05/23 12:56:35;;;;;;;5.60;1.70;;;;;;;17.50;36.87;101119.69;6091659;29;20492;-48
2021/05/23 12:59:55;;;;;;;2.47;1.33;;;;;;;17.36;37.22;101109.63;6093176;29;20231;-51
2021/05/23 13:03:18;;;;;;;4.13;1.80;;;;;;;17.15;37.72;101120.84;6090866;29;20240;-47
2021/05/23 13:06:45;;;;;;;1.87;1.40;;;;;;;15.58;40.14;101128.66;6090634;29;20224;-52
2021/05/23 13:10:11;;;;;;;3.37;1.20;;;;;;;15.62;40.76;101138.19;6092813;29;20244;-48
2021/05/23 13:13:42;;;;;;;3.83;1.50;;;;;;;15.55;41.35;101149.75;6090273;29;20232;-52
2021/05/23 13:17:04;;;;;;;2.90;1.60;;;;;;;15.04;42.26;101145.66;6090169;29;20232;-47
2021/05/23 13:20:31;;;;;;;3.40;1.97;;;;;;;15.34;41.92;101149.38;6093270;29;20504;-48
2021/05/23 13:23:51;;;;;;;3.63;2.00;;;;;;;14.74;43.24;101145.44;6090879;29;20232;-49
2021/05/23 13:27:14;;;;;;;2.43;1.63;;;;;;;14.95;43.01;101146.75;6086815;29;20241;-52
2021/05/23 13:30:35;;;;;;;2.43;1.73;;;;;;;15.75;45.24;101141.41;6080846;29;20232;-48
2021/05/23 13:33:57;;;;;;;2.40;2.07;;;;;;;15.41;43.76;101138.72;6088681;29;20228;-49
2021/05/23 13:37:17;;;;;;;3.07;2.30;;;;;;;16.60;41.30;101154.91;6080921;29;20540;-48
2021/05/23 13:40:38;;;;;;;2.63;2.40;;;;;;;15.94;41.75;101150.53;6089769;29;20228;-51
2021/05/23 13:43:58;;;;;;;9.67;2.93;;;;;;;16.02;41.64;101149.50;6080842;29;20950;-48
2021/05/23 13:47:20;;;;;;;7.03;2.33;;;;;;;15.32;43.21;101145.06;6078704;29;20484;-53
2021/05/23 13:50:42;;;;;;;3.73;1.60;;;;;;;14.98;43.94;101144.97;6095615;29;20232;-49
2021/05/23 13:54:03;;;;;;;3.80;2.10;;;;;;;15.27;42.88;101146.91;6088571;29;20232;-49
2021/05/23 13:57:24;;;;;;;2.30;1.80;;;;;;;15.06;43.76;101143.91;6080733;29;20252;-53
2021/05/23 14:00:46;;;;;;;2.43;1.80;;;;;;;15.89;42.71;101152.41;6091994;29;20232;-52
2021/05/23 14:04:07;;;;;;;3.27;2.30;;;;;;;15.19;44.42;101154.09;6086207;29;20236;-54
2021/05/23 14:07:27;;;;;;;3.87;2.77;;;;;;;15.39;44.32;101162.38;6083785;29;20251;-46
2021/05/23 14:10:49;;;;;;;6.67;2.63;;;;;;;14.42;46.76;101166.16;6075642;29;20615;-49
2021/05/23 14:14:09;;;;;;;3.20;2.30;;;;;;;14.70;46.49;101177.03;6082426;29;20241;-52
2021/05/23 14:17:30;;;;;;;2.93;2.33;;;;;;;14.41;47.62;101174.94;6079713;29;20236;-48
2021/05/23 14:20:51;;;;;;;3.67;2.33;;;;;;;14.22;49.11;101182.28;6081383;29;20236;-51
2021/05/23 14:24:12;;;;;;;2.17;1.97;;;;;;;13.75;50.97;101184.84;6088645;29;20224;-50
2021/05/23 14:27:33;;;;;;;3.53;2.57;;;;;;;14.17;50.39;101182.34;6074181;29;20232;-53
2021/05/23 14:30:53;;;;;;;2.97;2.20;;;;;;;14.69;49.37;101178.75;6079575;29;20232;-51
2021/05/23 14:34:14;;;;;;;3.53;2.40;;;;;;;14.17;50.28;101193.72;6081737;29;20229;-47
2021/05/23 14:37:35;;;;;;;3.53;2.37;;;;;;;14.10;50.87;101196.47;6081423;29;20550;-47
2021/05/23 14:40:56;;;;;;;4.40;2.77;;;;;;;14.38;50.08;101191.56;6077976;29;20560;-51
2021/05/23 14:44:16;;;;;;;2.47;2.27;;;;;;;14.38;49.86;101197.69;6074968;29;20607;-49
2021/05/23 14:47:37;;;;;;;2.33;2.10;;;;;;;13.93;51.14;101191.50;6077635;29;20232;-51
2021/05/23 14:50:57;;;;;;;4.60;3.50;;;;;;;14.55;49.84;101199.09;6081834;29;20741;-50
2021/05/23 14:54:19;;;;;;;2.77;2.57;;;;;;;14.31;50.44;101198.69;6086964;29;20264;-53
2021/05/23 14:57:44;;;;;;;2.43;2.23;;;;;;;14.14;50.84;101198.13;6090636;29;20232;-55
2021/05/23 15:01:05;;;;;;;3.10;2.77;;;;;;;14.83;48.79;101203.81;6085382;29;20265;-51
2021/05/23 15:04:25;;;;;;;2.33;2.10;;;;;;;14.59;49.37;101200.81;6083058;29;20239;-49
2021/05/23 15:07:46;;;;;;;5.47;2.97;;;;;;;14.96;48.81;101207.91;6085922;29;20583;-52
2021/05/23 15:11:07;;;;;;;3.00;2.47;;;;;;;15.89;47.10;101199.69;6084724;29;20848;-50
2021/05/23 15:14:28;;;;;;;3.60;2.53;;;;;;;15.55;47.17;101194.38;6079046;29;20232;-51
2021/05/23 15:17:48;;;;;;;2.30;2.20;;;;;;;15.45;47.42;101199.00;6085989;29;20256;-49
2021/05/23 15:21:08;;;;;;;2.43;2.00;;;;;;;15.50;47.27;101194.47;6086428;29;20236;-51
2021/05/23 15:24:29;;;;;;;3.27;2.63;;;;;;;15.87;46.80;101198.00;6083973;29;20228;-51
2021/05/23 15:31:30;;;;;;;4.40;2.60;;;;;;;16.70;44.80;101201.91;6086649;29;20824;-50
2021/05/23 15:34:50;;;;;;;2.93;1.60;;;;;;;15.92;46.25;101204.03;6090398;29;20248;-52
2021/05/23 15:38:11;;;;;;;1.50;1.40;;;;;;;16.38;45.10;101204.56;6096428;29;20598;-51
2021/05/23 15:41:32;;;;;;;2.10;1.90;;;;;;;15.32;46.98;101214.13;6087930;29;20228;-50